sensor_id;sensor_type;location;lat;lon;timestamp;P1;durP1;ratioP1;P2;durP2;ratioP2
63342;SDS011;49465;57.664;39.686;2023-05-10T00:00:11;5.30;;;2.80;;
63342;SDS011;49465;57.664;39.686;2023-05-10T00:02:38;5.65;;;3.05;;
63342;SDS011;49465;57.664;39.686;2023-05-10T00:05:05;4.95;;;3.00;;
63342;SDS011;49465;57.664;39.686;2023-05-10T00:07:32;7.32;;;3.20;;
63342;SDS011;49465;57.664;39.686;2023-05-10T00:09:59;3.22;;;2.83;;
63342;SDS011;49465;57.664;39.686;2023-05-10T00:12:30;3.17;;;2.75;;
63342;SDS011;49465;57.664;39.686;2023-05-10T00:14:57;8.15;;;3.55;;
63342;SDS011;49465;57.664;39.686;2023-05-10T00:17:25;5.15;;;3.40;;
63342;SDS011;49465;57.664;39.686;2023-05-10T00:19:57;5.50;;;3.10;;
63342;SDS011;49465;57.664;39.686;2023-05-10T00:22:23;6.10;;;3.40;;
63342;SDS011;49465;57.664;39.686;2023-05-10T00:24:50;5.28;;;3.40;;
63342;SDS011;49465;57.664;39.686;2023-05-10T00:27:19;5.88;;;3.35;;
63342;SDS011;49465;57.664;39.686;2023-05-10T00:29:45;4.80;;;3.72;;
63342;SDS011;49465;57.664;39.686;2023-05-10T00:32:12;5.82;;;3.60;;
63342;SDS011;49465;57.664;39.686;2023-05-10T00:34:39;6.68;;;3.75;;
63342;SDS011;49465;57.664;39.686;2023-05-10T00:37:05;5.47;;;3.40;;
63342;SDS011;49465;57.664;39.686;2023-05-10T00:39:35;7.15;;;3.17;;
63342;SDS011;49465;57.664;39.686;2023-05-10T00:42:04;6.43;;;3.67;;
63342;SDS011;49465;57.664;39.686;2023-05-10T00:44:33;4.53;;;3.50;;
63342;SDS011;49465;57.664;39.686;2023-05-10T00:47:05;7.88;;;3.67;;
63342;SDS011;49465;57.664;39.686;2023-05-10T00:49:32;4.53;;;3.25;;
63342;SDS011;49465;57.664;39.686;2023-05-10T00:51:59;4.72;;;3.47;;
63342;SDS011;49465;57.664;39.686;2023-05-10T00:54:27;4.28;;;2.88;;
63342;SDS011;49465;57.664;39.686;2023-05-10T00:56:53;4.43;;;3.55;;
63342;SDS011;49465;57.664;39.686;2023-05-10T00:59:31;6.35;;;3.90;;
63342;SDS011;49465;57.664;39.686;2023-05-10T01:01:57;7.68;;;3.47;;
63342;SDS011;49465;57.664;39.686;2023-05-10T01:04:24;3.92;;;3.25;;
63342;SDS011;49465;57.664;39.686;2023-05-10T01:06:51;5.15;;;3.20;;
63342;SDS011;49465;57.664;39.686;2023-05-10T01:09:18;4.60;;;3.08;;
63342;SDS011;49465;57.664;39.686;2023-05-10T01:11:51;4.43;;;3.00;;
63342;SDS011;49465;57.664;39.686;2023-05-10T01:14:18;7.15;;;3.22;;
63342;SDS011;49465;57.664;39.686;2023-05-10T01:16:47;5.18;;;3.50;;
63342;SDS011;49465;57.664;39.686;2023-05-10T01:19:23;6.07;;;3.45;;
63342;SDS011;49465;57.664;39.686;2023-05-10T01:25:01;4.15;;;3.20;;
63342;SDS011;49465;57.664;39.686;2023-05-10T01:28:32;6.00;;;3.50;;
63342;SDS011;49465;57.664;39.686;2023-05-10T01:33:43;4.70;;;3.25;;
63342;SDS011;49465;57.664;39.686;2023-05-10T01:42:16;4.75;;;3.13;;
63342;SDS011;49465;57.664;39.686;2023-05-10T01:47:51;4.75;;;3.40;;
63342;SDS011;49465;57.664;39.686;2023-05-10T01:50:43;6.25;;;3.65;;
63342;SDS011;49465;57.664;39.686;2023-05-10T01:53:17;5.43;;;3.60;;
63342;SDS011;49465;57.664;39.686;2023-05-10T01:55:51;6.53;;;4.00;;
63342;SDS011;49465;57.664;39.686;2023-05-10T01:58:34;5.75;;;3.15;;
63342;SDS011;49465;57.664;39.686;2023-05-10T02:03:42;4.97;;;3.33;;
63342;SDS011;49465;57.664;39.686;2023-05-10T02:06:13;4.57;;;2.97;;
63342;SDS011;49465;57.664;39.686;2023-05-10T02:08:47;4.50;;;3.22;;
63342;SDS011;49465;57.664;39.686;2023-05-10T02:11:18;4.32;;;3.00;;
63342;SDS011;49465;57.664;39.686;2023-05-10T02:13:47;7.00;;;3.53;;
63342;SDS011;49465;57.664;39.686;2023-05-10T02:16:18;3.92;;;3.03;;
63342;SDS011;49465;57.664;39.686;2023-05-10T02:18:52;4.05;;;3.00;;
63342;SDS011;49465;57.664;39.686;2023-05-10T02:21:26;4.57;;;3.10;;
63342;SDS011;49465;57.664;39.686;2023-05-10T02:23:57;5.07;;;3.22;;
63342;SDS011;49465;57.664;39.686;2023-05-10T02:26:24;4.93;;;3.00;;
63342;SDS011;49465;57.664;39.686;2023-05-10T02:28:55;5.47;;;3.47;;
63342;SDS011;49465;57.664;39.686;2023-05-10T02:31:23;4.97;;;2.83;;
63342;SDS011;49465;57.664;39.686;2023-05-10T02:34:00;5.57;;;2.67;;
63342;SDS011;49465;57.664;39.686;2023-05-10T02:36:30;7.15;;;2.70;;
63342;SDS011;49465;57.664;39.686;2023-05-10T02:39:02;4.95;;;3.15;;
63342;SDS011;49465;57.664;39.686;2023-05-10T02:41:34;4.90;;;3.35;;
63342;SDS011;49465;57.664;39.686;2023-05-10T02:44:02;6.43;;;3.20;;
63342;SDS011;49465;57.664;39.686;2023-05-10T02:46:31;8.00;;;3.65;;
63342;SDS011;49465;57.664;39.686;2023-05-10T02:48:58;7.90;;;3.60;;
63342;SDS011;49465;57.664;39.686;2023-05-10T02:51:25;6.78;;;3.60;;
63342;SDS011;49465;57.664;39.686;2023-05-10T02:54:01;9.25;;;3.65;;
63342;SDS011;49465;57.664;39.686;2023-05-10T02:56:39;6.45;;;3.50;;
63342;SDS011;49465;57.664;39.686;2023-05-10T02:59:12;4.55;;;3.10;;
63342;SDS011;49465;57.664;39.686;2023-05-10T03:01:38;5.47;;;3.10;;
63342;SDS011;49465;57.664;39.686;2023-05-10T03:04:05;7.32;;;4.00;;
63342;SDS011;49465;57.664;39.686;2023-05-10T03:06:34;13.52;;;4.68;;
63342;SDS011;49465;57.664;39.686;2023-05-10T03:09:03;19.13;;;5.28;;
63342;SDS011;49465;57.664;39.686;2023-05-10T03:11:39;12.75;;;5.57;;
63342;SDS011;49465;57.664;39.686;2023-05-10T03:17:30;13.05;;;6.93;;
63342;SDS011;49465;57.664;39.686;2023-05-10T03:20:31;9.27;;;6.70;;
63342;SDS011;49465;57.664;39.686;2023-05-10T03:23:04;11.55;;;6.50;;
63342;SDS011;49465;57.664;39.686;2023-05-10T03:25:41;9.20;;;6.07;;
63342;SDS011;49465;57.664;39.686;2023-05-10T03:28:09;8.70;;;4.78;;
63342;SDS011;49465;57.664;39.686;2023-05-10T03:30:37;10.68;;;4.00;;
63342;SDS011;49465;57.664;39.686;2023-05-10T03:33:10;7.63;;;4.03;;
63342;SDS011;49465;57.664;39.686;2023-05-10T03:38:39;6.82;;;3.17;;
63342;SDS011;49465;57.664;39.686;2023-05-10T03:41:11;6.03;;;2.97;;
63342;SDS011;49465;57.664;39.686;2023-05-10T03:43:42;6.32;;;3.10;;
63342;SDS011;49465;57.664;39.686;2023-05-10T03:46:18;4.75;;;2.80;;
63342;SDS011;49465;57.664;39.686;2023-05-10T03:49:03;6.22;;;2.90;;
63342;SDS011;49465;57.664;39.686;2023-05-10T03:51:38;3.80;;;2.35;;
63342;SDS011;49465;57.664;39.686;2023-05-10T03:54:25;3.78;;;2.50;;
63342;SDS011;49465;57.664;39.686;2023-05-10T03:56:52;4.35;;;2.30;;
63342;SDS011;49465;57.664;39.686;2023-05-10T03:59:18;4.78;;;2.45;;
63342;SDS011;49465;57.664;39.686;2023-05-10T04:01:56;7.88;;;2.60;;
63342;SDS011;49465;57.664;39.686;2023-05-10T04:04:23;3.55;;;2.53;;
63342;SDS011;49465;57.664;39.686;2023-05-10T04:07:01;6.07;;;2.67;;
63342;SDS011;49465;57.664;39.686;2023-05-10T04:09:30;4.25;;;2.92;;
63342;SDS011;49465;57.664;39.686;2023-05-10T04:11:58;5.70;;;2.85;;
63342;SDS011;49465;57.664;39.686;2023-05-10T04:14:27;6.10;;;2.50;;
63342;SDS011;49465;57.664;39.686;2023-05-10T04:16:54;5.63;;;2.45;;
63342;SDS011;49465;57.664;39.686;2023-05-10T04:19:23;9.75;;;3.08;;
63342;SDS011;49465;57.664;39.686;2023-05-10T04:21:54;12.05;;;2.67;;
63342;SDS011;49465;57.664;39.686;2023-05-10T04:24:23;6.35;;;2.30;;
63342;SDS011;49465;57.664;39.686;2023-05-10T04:26:53;5.97;;;2.30;;
63342;SDS011;49465;57.664;39.686;2023-05-10T04:29:20;9.32;;;2.38;;
63342;SDS011;49465;57.664;39.686;2023-05-10T04:31:49;10.70;;;2.53;;
63342;SDS011;49465;57.664;39.686;2023-05-10T04:34:19;12.15;;;2.90;;
63342;SDS011;49465;57.664;39.686;2023-05-10T04:36:46;7.90;;;2.65;;
63342;SDS011;49465;57.664;39.686;2023-05-10T04:39:12;9.65;;;3.20;;
63342;SDS011;49465;57.664;39.686;2023-05-10T04:41:41;6.47;;;3.67;;
63342;SDS011;49465;57.664;39.686;2023-05-10T04:44:09;7.75;;;2.90;;
63342;SDS011;49465;57.664;39.686;2023-05-10T04:46:40;12.48;;;3.33;;
63342;SDS011;49465;57.664;39.686;2023-05-10T04:49:10;4.78;;;2.70;;
63342;SDS011;49465;57.664;39.686;2023-05-10T04:51:39;8.68;;;3.28;;
63342;SDS011;49465;57.664;39.686;2023-05-10T04:54:08;6.18;;;2.30;;
63342;SDS011;49465;57.664;39.686;2023-05-10T04:56:37;4.50;;;2.38;;
63342;SDS011;49465;57.664;39.686;2023-05-10T04:59:04;5.13;;;2.50;;
63342;SDS011;49465;57.664;39.686;2023-05-10T05:01:30;4.47;;;2.45;;
63342;SDS011;49465;57.664;39.686;2023-05-10T05:03:57;3.90;;;2.10;;
63342;SDS011;49465;57.664;39.686;2023-05-10T05:06:29;4.53;;;2.22;;
63342;SDS011;49465;57.664;39.686;2023-05-10T05:08:55;7.38;;;2.40;;
63342;SDS011;49465;57.664;39.686;2023-05-10T05:13:56;4.55;;;1.90;;
63342;SDS011;49465;57.664;39.686;2023-05-10T05:16:25;4.90;;;1.92;;
63342;SDS011;49465;57.664;39.686;2023-05-10T05:18:55;5.28;;;2.15;;
63342;SDS011;49465;57.664;39.686;2023-05-10T05:21:22;4.40;;;2.30;;
63342;SDS011;49465;57.664;39.686;2023-05-10T05:23:50;5.70;;;2.28;;
63342;SDS011;49465;57.664;39.686;2023-05-10T05:26:21;4.70;;;2.15;;
63342;SDS011;49465;57.664;39.686;2023-05-10T05:28:48;4.75;;;2.10;;
63342;SDS011;49465;57.664;39.686;2023-05-10T05:31:20;4.28;;;2.00;;
63342;SDS011;49465;57.664;39.686;2023-05-10T05:33:56;7.93;;;2.08;;
63342;SDS011;49465;57.664;39.686;2023-05-10T05:36:22;8.23;;;3.58;;
63342;SDS011;49465;57.664;39.686;2023-05-10T05:38:51;43.00;;;27.90;;
63342;SDS011;49465;57.664;39.686;2023-05-10T05:41:23;119.60;;;86.43;;
63342;SDS011;49465;57.664;39.686;2023-05-10T05:43:56;52.33;;;38.83;;
63342;SDS011;49465;57.664;39.686;2023-05-10T05:46:22;61.58;;;46.67;;
63342;SDS011;49465;57.664;39.686;2023-05-10T05:48:52;21.98;;;17.05;;
63342;SDS011;49465;57.664;39.686;2023-05-10T05:51:18;27.48;;;20.35;;
63342;SDS011;49465;57.664;39.686;2023-05-10T05:53:45;33.70;;;25.88;;
63342;SDS011;49465;57.664;39.686;2023-05-10T05:56:23;37.13;;;28.80;;
63342;SDS011;49465;57.664;39.686;2023-05-10T05:58:50;27.33;;;20.38;;
63342;SDS011;49465;57.664;39.686;2023-05-10T06:01:21;36.92;;;26.73;;
63342;SDS011;49465;57.664;39.686;2023-05-10T06:03:50;20.52;;;16.33;;
63342;SDS011;49465;57.664;39.686;2023-05-10T06:06:17;25.20;;;19.45;;
63342;SDS011;49465;57.664;39.686;2023-05-10T06:08:45;22.40;;;15.73;;
63342;SDS011;49465;57.664;39.686;2023-05-10T06:11:12;11.25;;;8.10;;
63342;SDS011;49465;57.664;39.686;2023-05-10T06:13:38;13.30;;;10.02;;
63342;SDS011;49465;57.664;39.686;2023-05-10T06:16:04;11.45;;;8.15;;
63342;SDS011;49465;57.664;39.686;2023-05-10T06:18:35;14.82;;;9.45;;
63342;SDS011;49465;57.664;39.686;2023-05-10T06:21:04;12.05;;;8.60;;
63342;SDS011;49465;57.664;39.686;2023-05-10T06:23:33;9.52;;;6.88;;
63342;SDS011;49465;57.664;39.686;2023-05-10T06:26:03;7.05;;;4.38;;
63342;SDS011;49465;57.664;39.686;2023-05-10T06:28:33;4.68;;;3.85;;
63342;SDS011;49465;57.664;39.686;2023-05-10T06:31:11;5.47;;;3.35;;
63342;SDS011;49465;57.664;39.686;2023-05-10T06:33:44;5.95;;;3.30;;
63342;SDS011;49465;57.664;39.686;2023-05-10T06:36:10;4.72;;;3.25;;
63342;SDS011;49465;57.664;39.686;2023-05-10T06:38:40;4.10;;;2.50;;
63342;SDS011;49465;57.664;39.686;2023-05-10T06:41:06;3.95;;;2.55;;
63342;SDS011;49465;57.664;39.686;2023-05-10T06:43:35;3.33;;;2.10;;
63342;SDS011;49465;57.664;39.686;2023-05-10T06:46:05;3.50;;;2.30;;
63342;SDS011;49465;57.664;39.686;2023-05-10T06:48:34;3.13;;;2.17;;
63342;SDS011;49465;57.664;39.686;2023-05-10T06:51:09;4.10;;;2.20;;
63342;SDS011;49465;57.664;39.686;2023-05-10T06:53:42;3.30;;;1.83;;
63342;SDS011;49465;57.664;39.686;2023-05-10T06:56:09;3.75;;;2.08;;
63342;SDS011;49465;57.664;39.686;2023-05-10T06:58:43;3.17;;;2.30;;
63342;SDS011;49465;57.664;39.686;2023-05-10T07:01:24;3.25;;;2.10;;
63342;SDS011;49465;57.664;39.686;2023-05-10T07:03:54;4.50;;;2.07;;
63342;SDS011;49465;57.664;39.686;2023-05-10T07:06:23;5.25;;;2.25;;
63342;SDS011;49465;57.664;39.686;2023-05-10T07:08:49;29.50;;;22.17;;
63342;SDS011;49465;57.664;39.686;2023-05-10T07:11:21;44.90;;;34.70;;
63342;SDS011;49465;57.664;39.686;2023-05-10T07:13:48;102.07;;;80.97;;
63342;SDS011;49465;57.664;39.686;2023-05-10T07:16:18;42.95;;;35.28;;
63342;SDS011;49465;57.664;39.686;2023-05-10T07:18:50;35.20;;;28.33;;
63342;SDS011;49465;57.664;39.686;2023-05-10T07:21:24;26.55;;;19.73;;
63342;SDS011;49465;57.664;39.686;2023-05-10T07:23:54;13.88;;;11.45;;
63342;SDS011;49465;57.664;39.686;2023-05-10T07:26:20;11.80;;;9.02;;
63342;SDS011;49465;57.664;39.686;2023-05-10T07:28:50;15.88;;;13.23;;
63342;SDS011;49465;57.664;39.686;2023-05-10T07:31:16;11.80;;;8.25;;
63342;SDS011;49465;57.664;39.686;2023-05-10T07:33:43;12.25;;;7.18;;
63342;SDS011;49465;57.664;39.686;2023-05-10T07:36:09;8.00;;;5.47;;
63342;SDS011;49465;57.664;39.686;2023-05-10T07:38:36;8.23;;;4.43;;
63342;SDS011;49465;57.664;39.686;2023-05-10T07:41:02;5.00;;;3.70;;
63342;SDS011;49465;57.664;39.686;2023-05-10T07:43:29;5.22;;;3.67;;
63342;SDS011;49465;57.664;39.686;2023-05-10T07:45:55;3.65;;;2.83;;
63342;SDS011;49465;57.664;39.686;2023-05-10T07:48:25;6.20;;;2.33;;
63342;SDS011;49465;57.664;39.686;2023-05-10T07:50:52;4.20;;;2.28;;
63342;SDS011;49465;57.664;39.686;2023-05-10T07:53:18;3.50;;;2.67;;
63342;SDS011;49465;57.664;39.686;2023-05-10T07:55:56;3.38;;;2.45;;
63342;SDS011;49465;57.664;39.686;2023-05-10T07:58:24;3.50;;;2.30;;
63342;SDS011;49465;57.664;39.686;2023-05-10T08:00:50;2.25;;;1.80;;
63342;SDS011;49465;57.664;39.686;2023-05-10T08:03:17;2.88;;;1.92;;
63342;SDS011;49465;57.664;39.686;2023-05-10T08:05:44;3.13;;;1.60;;
63342;SDS011;49465;57.664;39.686;2023-05-10T08:08:10;3.17;;;1.55;;
63342;SDS011;49465;57.664;39.686;2023-05-10T08:10:37;4.85;;;1.60;;
63342;SDS011;49465;57.664;39.686;2023-05-10T08:13:03;2.03;;;1.60;;
63342;SDS011;49465;57.664;39.686;2023-05-10T08:15:30;3.08;;;1.30;;
63342;SDS011;49465;57.664;39.686;2023-05-10T08:17:59;2.28;;;1.50;;
63342;SDS011;49465;57.664;39.686;2023-05-10T08:20:25;3.28;;;1.60;;
63342;SDS011;49465;57.664;39.686;2023-05-10T08:22:55;1.52;;;1.30;;
63342;SDS011;49465;57.664;39.686;2023-05-10T08:25:21;3.40;;;1.60;;
63342;SDS011;49465;57.664;39.686;2023-05-10T08:27:48;3.15;;;1.38;;
63342;SDS011;49465;57.664;39.686;2023-05-10T08:30:15;2.17;;;1.48;;
63342;SDS011;49465;57.664;39.686;2023-05-10T08:32:41;1.95;;;1.33;;
63342;SDS011;49465;57.664;39.686;2023-05-10T08:35:07;1.95;;;1.38;;
63342;SDS011;49465;57.664;39.686;2023-05-10T08:37:34;4.38;;;1.38;;
63342;SDS011;49465;57.664;39.686;2023-05-10T08:40:01;1.90;;;1.30;;
63342;SDS011;49465;57.664;39.686;2023-05-10T08:42:28;4.35;;;1.40;;
63342;SDS011;49465;57.664;39.686;2023-05-10T08:45:00;2.25;;;1.38;;
63342;SDS011;49465;57.664;39.686;2023-05-10T08:47:29;2.78;;;1.40;;
63342;SDS011;49465;57.664;39.686;2023-05-10T08:49:56;2.13;;;1.48;;
63342;SDS011;49465;57.664;39.686;2023-05-10T08:52:24;2.70;;;1.60;;
63342;SDS011;49465;57.664;39.686;2023-05-10T08:54:53;2.45;;;1.67;;
63342;SDS011;49465;57.664;39.686;2023-05-10T08:57:20;3.20;;;1.50;;
63342;SDS011;49465;57.664;39.686;2023-05-10T08:59:46;1.80;;;1.30;;
63342;SDS011;49465;57.664;39.686;2023-05-10T09:02:13;3.10;;;1.45;;
63342;SDS011;49465;57.664;39.686;2023-05-10T09:04:41;2.45;;;1.20;;
63342;SDS011;49465;57.664;39.686;2023-05-10T09:07:08;1.65;;;1.30;;
63342;SDS011;49465;57.664;39.686;2023-05-10T09:09:35;2.53;;;1.13;;
63342;SDS011;49465;57.664;39.686;2023-05-10T09:12:06;1.95;;;1.30;;
63342;SDS011;49465;57.664;39.686;2023-05-10T09:14:36;3.85;;;1.23;;
63342;SDS011;49465;57.664;39.686;2023-05-10T09:17:04;2.08;;;1.20;;
63342;SDS011;49465;57.664;39.686;2023-05-10T09:19:30;4.05;;;1.35;;
63342;SDS011;49465;57.664;39.686;2023-05-10T09:21:57;2.70;;;1.00;;
63342;SDS011;49465;57.664;39.686;2023-05-10T09:24:25;1.83;;;1.20;;
63342;SDS011;49465;57.664;39.686;2023-05-10T09:26:52;1.80;;;1.40;;
63342;SDS011;49465;57.664;39.686;2023-05-10T09:29:18;2.38;;;1.20;;
63342;SDS011;49465;57.664;39.686;2023-05-10T09:31:46;1.65;;;1.10;;
63342;SDS011;49465;57.664;39.686;2023-05-10T09:34:17;2.08;;;1.20;;
63342;SDS011;49465;57.664;39.686;2023-05-10T09:36:57;2.47;;;1.15;;
63342;SDS011;49465;57.664;39.686;2023-05-10T09:42:04;2.63;;;1.25;;
63342;SDS011;49465;57.664;39.686;2023-05-10T09:44:32;2.58;;;1.10;;
63342;SDS011;49465;57.664;39.686;2023-05-10T09:47:00;2.78;;;1.10;;
63342;SDS011;49465;57.664;39.686;2023-05-10T09:49:27;2.00;;;1.20;;
63342;SDS011;49465;57.664;39.686;2023-05-10T09:52:01;2.90;;;1.10;;
63342;SDS011;49465;57.664;39.686;2023-05-10T09:54:33;4.43;;;1.23;;
63342;SDS011;49465;57.664;39.686;2023-05-10T09:57:01;4.00;;;1.13;;
63342;SDS011;49465;57.664;39.686;2023-05-10T09:59:28;2.67;;;1.15;;
63342;SDS011;49465;57.664;39.686;2023-05-10T10:01:59;2.72;;;1.10;;
63342;SDS011;49465;57.664;39.686;2023-05-10T10:04:26;1.58;;;1.20;;
63342;SDS011;49465;57.664;39.686;2023-05-10T10:07:03;1.33;;;1.10;;
63342;SDS011;49465;57.664;39.686;2023-05-10T10:09:31;3.35;;;1.08;;
63342;SDS011;49465;57.664;39.686;2023-05-10T10:11:58;3.35;;;1.10;;
63342;SDS011;49465;57.664;39.686;2023-05-10T10:14:29;2.83;;;1.30;;
63342;SDS011;49465;57.664;39.686;2023-05-10T10:16:56;1.67;;;1.30;;
63342;SDS011;49465;57.664;39.686;2023-05-10T10:19:25;4.30;;;1.30;;
63342;SDS011;49465;57.664;39.686;2023-05-10T10:21:53;2.50;;;1.10;;
63342;SDS011;49465;57.664;39.686;2023-05-10T10:24:19;1.50;;;1.10;;
63342;SDS011;49465;57.664;39.686;2023-05-10T10:26:46;3.42;;;2.13;;
63342;SDS011;49465;57.664;39.686;2023-05-10T10:31:50;4.30;;;1.15;;
63342;SDS011;49465;57.664;39.686;2023-05-10T10:34:30;1.58;;;1.00;;
63342;SDS011;49465;57.664;39.686;2023-05-10T10:36:57;2.45;;;1.00;;
63342;SDS011;49465;57.664;39.686;2023-05-10T10:39:29;7.10;;;1.30;;
63342;SDS011;49465;57.664;39.686;2023-05-10T10:41:57;18.52;;;14.75;;
63342;SDS011;49465;57.664;39.686;2023-05-10T10:52:14;36.17;;;31.35;;
63342;SDS011;49465;57.664;39.686;2023-05-10T10:55:20;33.03;;;28.30;;
63342;SDS011;49465;57.664;39.686;2023-05-10T10:57:54;15.70;;;13.85;;
63342;SDS011;49465;57.664;39.686;2023-05-10T11:00:35;8.20;;;6.35;;
63342;SDS011;49465;57.664;39.686;2023-05-10T11:03:08;12.70;;;9.70;;
63342;SDS011;49465;57.664;39.686;2023-05-10T11:05:43;8.57;;;7.55;;
63342;SDS011;49465;57.664;39.686;2023-05-10T11:08:20;7.07;;;5.75;;
63342;SDS011;49465;57.664;39.686;2023-05-10T11:11:04;3.95;;;3.10;;
63342;SDS011;49465;57.664;39.686;2023-05-10T11:16:15;2.75;;;1.85;;
63342;SDS011;49465;57.664;39.686;2023-05-10T11:19:03;2.28;;;1.50;;
63342;SDS011;49465;57.664;39.686;2023-05-10T11:24:33;1.65;;;1.40;;
63342;SDS011;49465;57.664;39.686;2023-05-10T11:27:00;1.33;;;1.10;;
63342;SDS011;49465;57.664;39.686;2023-05-10T11:29:36;1.15;;;1.05;;
63342;SDS011;49465;57.664;39.686;2023-05-10T11:32:05;2.00;;;1.20;;
63342;SDS011;49465;57.664;39.686;2023-05-10T11:34:38;1.75;;;1.23;;
63342;SDS011;49465;57.664;39.686;2023-05-10T11:37:07;3.42;;;1.30;;
63342;SDS011;49465;57.664;39.686;2023-05-10T11:39:45;1.40;;;1.17;;
63342;SDS011;49465;57.664;39.686;2023-05-10T11:42:19;4.63;;;1.30;;
63342;SDS011;49465;57.664;39.686;2023-05-10T11:44:46;1.50;;;1.10;;
63342;SDS011;49465;57.664;39.686;2023-05-10T11:47:18;1.73;;;1.10;;
63342;SDS011;49465;57.664;39.686;2023-05-10T11:50:07;2.53;;;1.17;;
63342;SDS011;49465;57.664;39.686;2023-05-10T11:52:37;2.70;;;1.20;;
63342;SDS011;49465;57.664;39.686;2023-05-10T11:55:10;1.52;;;1.00;;
63342;SDS011;49465;57.664;39.686;2023-05-10T11:57:40;1.30;;;1.10;;
63342;SDS011;49465;57.664;39.686;2023-05-10T12:00:15;3.90;;;1.00;;
63342;SDS011;49465;57.664;39.686;2023-05-10T12:02:48;1.83;;;0.98;;
63342;SDS011;49465;57.664;39.686;2023-05-10T12:05:20;2.08;;;1.00;;
63342;SDS011;49465;57.664;39.686;2023-05-10T12:07:47;3.17;;;1.10;;
63342;SDS011;49465;57.664;39.686;2023-05-10T12:10:17;1.40;;;0.88;;
63342;SDS011;49465;57.664;39.686;2023-05-10T12:13:02;3.90;;;1.40;;
63342;SDS011;49465;57.664;39.686;2023-05-10T12:15:42;2.10;;;0.93;;
63342;SDS011;49465;57.664;39.686;2023-05-10T12:18:12;5.57;;;1.10;;
63342;SDS011;49465;57.664;39.686;2023-05-10T12:20:48;3.33;;;0.90;;
63342;SDS011;49465;57.664;39.686;2023-05-10T12:23:33;1.25;;;0.90;;
63342;SDS011;49465;57.664;39.686;2023-05-10T12:26:05;1.15;;;0.95;;
63342;SDS011;49465;57.664;39.686;2023-05-10T12:31:15;1.88;;;0.90;;
63342;SDS011;49465;57.664;39.686;2023-05-10T12:33:47;3.00;;;1.10;;
63342;SDS011;49465;57.664;39.686;2023-05-10T12:36:17;3.00;;;0.90;;
63342;SDS011;49465;57.664;39.686;2023-05-10T12:38:59;3.35;;;1.00;;
63342;SDS011;49465;57.664;39.686;2023-05-10T12:41:34;1.48;;;1.00;;
63342;SDS011;49465;57.664;39.686;2023-05-10T12:44:05;1.42;;;1.20;;
63342;SDS011;49465;57.664;39.686;2023-05-10T12:46:34;1.55;;;1.10;;
63342;SDS011;49465;57.664;39.686;2023-05-10T12:49:01;3.03;;;1.02;;
63342;SDS011;49465;57.664;39.686;2023-05-10T12:51:30;3.78;;;1.15;;
63342;SDS011;49465;57.664;39.686;2023-05-10T12:53:59;3.33;;;1.00;;
63342;SDS011;49465;57.664;39.686;2023-05-10T12:56:30;2.42;;;1.00;;
63342;SDS011;49465;57.664;39.686;2023-05-10T12:58:57;2.25;;;1.10;;
63342;SDS011;49465;57.664;39.686;2023-05-10T13:01:24;3.38;;;1.40;;
63342;SDS011;49465;57.664;39.686;2023-05-10T13:03:56;1.65;;;1.20;;
63342;SDS011;49465;57.664;39.686;2023-05-10T13:06:22;3.38;;;1.50;;
63342;SDS011;49465;57.664;39.686;2023-05-10T13:08:48;1.75;;;1.33;;
63342;SDS011;49465;57.664;39.686;2023-05-10T13:11:18;2.58;;;1.40;;
63342;SDS011;49465;57.664;39.686;2023-05-10T13:13:46;3.55;;;1.33;;
63342;SDS011;49465;57.664;39.686;2023-05-10T13:16:16;3.78;;;1.35;;
63342;SDS011;49465;57.664;39.686;2023-05-10T13:18:48;1.75;;;1.23;;
63342;SDS011;49465;57.664;39.686;2023-05-10T13:21:14;1.80;;;1.40;;
63342;SDS011;49465;57.664;39.686;2023-05-10T13:23:42;4.80;;;1.30;;
63342;SDS011;49465;57.664;39.686;2023-05-10T13:26:11;1.67;;;1.10;;
63342;SDS011;49465;57.664;39.686;2023-05-10T13:28:38;4.07;;;1.20;;
63342;SDS011;49465;57.664;39.686;2023-05-10T13:31:05;2.30;;;1.20;;
63342;SDS011;49465;57.664;39.686;2023-05-10T13:33:34;3.95;;;1.13;;
63342;SDS011;49465;57.664;39.686;2023-05-10T13:36:01;2.72;;;1.30;;
63342;SDS011;49465;57.664;39.686;2023-05-10T13:38:30;3.10;;;1.33;;
63342;SDS011;49465;57.664;39.686;2023-05-10T13:40:59;3.15;;;1.20;;
63342;SDS011;49465;57.664;39.686;2023-05-10T13:43:25;3.13;;;1.02;;
63342;SDS011;49465;57.664;39.686;2023-05-10T13:45:57;5.88;;;1.33;;
63342;SDS011;49465;57.664;39.686;2023-05-10T13:48:24;1.60;;;1.10;;
63342;SDS011;49465;57.664;39.686;2023-05-10T13:50:53;2.25;;;1.20;;
63342;SDS011;49465;57.664;39.686;2023-05-10T13:53:20;1.40;;;1.10;;
63342;SDS011;49465;57.664;39.686;2023-05-10T13:56:09;2.45;;;1.10;;
63342;SDS011;49465;57.664;39.686;2023-05-10T13:58:35;2.55;;;1.08;;
63342;SDS011;49465;57.664;39.686;2023-05-10T14:01:07;3.50;;;1.30;;
63342;SDS011;49465;57.664;39.686;2023-05-10T14:03:37;4.75;;;1.15;;
63342;SDS011;49465;57.664;39.686;2023-05-10T14:06:14;1.55;;;1.25;;
63342;SDS011;49465;57.664;39.686;2023-05-10T14:08:44;2.22;;;1.00;;
63342;SDS011;49465;57.664;39.686;2023-05-10T14:11:24;1.90;;;1.27;;
63342;SDS011;49465;57.664;39.686;2023-05-10T14:13:55;4.05;;;1.00;;
63342;SDS011;49465;57.664;39.686;2023-05-10T14:16:29;2.88;;;1.02;;
63342;SDS011;49465;57.664;39.686;2023-05-10T14:19:09;2.72;;;1.23;;
63342;SDS011;49465;57.664;39.686;2023-05-10T14:21:44;3.47;;;1.13;;
63342;SDS011;49465;57.664;39.686;2023-05-10T14:24:17;2.78;;;1.20;;
63342;SDS011;49465;57.664;39.686;2023-05-10T14:26:51;3.38;;;1.38;;
63342;SDS011;49465;57.664;39.686;2023-05-10T14:29:20;2.70;;;1.17;;
63342;SDS011;49465;57.664;39.686;2023-05-10T14:31:47;3.17;;;1.13;;
63342;SDS011;49465;57.664;39.686;2023-05-10T14:34:13;2.13;;;1.10;;
63342;SDS011;49465;57.664;39.686;2023-05-10T14:36:43;5.03;;;1.00;;
63342;SDS011;49465;57.664;39.686;2023-05-10T14:39:12;1.65;;;1.20;;
63342;SDS011;49465;57.664;39.686;2023-05-10T14:41:39;3.45;;;1.10;;
63342;SDS011;49465;57.664;39.686;2023-05-10T14:44:09;2.15;;;1.05;;
63342;SDS011;49465;57.664;39.686;2023-05-10T14:46:42;4.72;;;1.17;;
63342;SDS011;49465;57.664;39.686;2023-05-10T14:49:17;4.70;;;1.20;;
63342;SDS011;49465;57.664;39.686;2023-05-10T14:51:50;2.55;;;1.20;;
63342;SDS011;49465;57.664;39.686;2023-05-10T14:54:20;1.92;;;1.08;;
63342;SDS011;49465;57.664;39.686;2023-05-10T14:56:49;5.63;;;1.10;;
63342;SDS011;49465;57.664;39.686;2023-05-10T15:01:49;2.35;;;1.00;;
63342;SDS011;49465;57.664;39.686;2023-05-10T15:04:15;2.92;;;1.20;;
63342;SDS011;49465;57.664;39.686;2023-05-10T15:06:44;10.88;;;1.35;;
63342;SDS011;49465;57.664;39.686;2023-05-10T15:09:14;2.88;;;1.13;;
63342;SDS011;49465;57.664;39.686;2023-05-10T15:11:46;1.30;;;1.10;;
63342;SDS011;49465;57.664;39.686;2023-05-10T15:14:15;4.03;;;1.10;;
63342;SDS011;49465;57.664;39.686;2023-05-10T15:19:42;4.57;;;1.10;;
63342;SDS011;49465;57.664;39.686;2023-05-10T15:22:20;10.43;;;1.40;;
63342;SDS011;49465;57.664;39.686;2023-05-10T15:24:53;4.43;;;1.25;;
63342;SDS011;49465;57.664;39.686;2023-05-10T15:27:19;16.85;;;1.70;;
63342;SDS011;49465;57.664;39.686;2023-05-10T15:30:01;6.15;;;1.60;;
63342;SDS011;49465;57.664;39.686;2023-05-10T15:32:30;6.25;;;1.40;;
63342;SDS011;49465;57.664;39.686;2023-05-10T15:35:03;8.00;;;1.23;;
63342;SDS011;49465;57.664;39.686;2023-05-10T15:37:30;3.25;;;1.20;;
63342;SDS011;49465;57.664;39.686;2023-05-10T15:40:25;4.78;;;1.40;;
63342;SDS011;49465;57.664;39.686;2023-05-10T15:42:52;4.47;;;1.30;;